createdAt,value
2022-09-04T00:00:17.497Z,0
2022-09-04T00:05:20.084Z,0
2022-09-04T00:10:17.525Z,0
2022-09-04T00:15:17.804Z,0
2022-09-04T00:20:17.888Z,0
2022-09-04T00:25:17.662Z,0
2022-09-04T00:30:17.564Z,0
2022-09-04T00:35:17.604Z,0
2022-09-04T00:40:17.558Z,0
2022-09-04T00:45:17.921Z,0
2022-09-04T00:50:17.566Z,0
2022-09-04T00:55:17.852Z,0
2022-09-04T01:00:17.937Z,0
2022-09-04T01:05:19.973Z,0
2022-09-04T01:10:17.739Z,0
2022-09-04T01:15:17.813Z,0
2022-09-04T01:20:17.884Z,0
2022-09-04T01:25:17.717Z,0
2022-09-04T01:30:18.491Z,0
2022-09-04T01:35:17.710Z,0
2022-09-04T01:40:17.650Z,0
2022-09-04T01:45:17.883Z,0
2022-09-04T01:50:17.705Z,0
2022-09-04T01:55:17.706Z,0
2022-09-04T02:00:17.720Z,0
2022-09-04T02:05:18.386Z,0
2022-09-04T02:10:17.878Z,0
2022-09-04T02:15:17.907Z,0
2022-09-04T02:20:17.738Z,0
2022-09-04T02:25:17.882Z,0
2022-09-04T02:30:17.784Z,0
2022-09-04T02:35:17.858Z,0
2022-09-04T02:40:17.852Z,0
2022-09-04T02:45:19.073Z,0
2022-09-04T02:50:17.798Z,0
2022-09-04T02:55:17.986Z,0
2022-09-04T03:00:21.266Z,0
2022-09-04T03:05:17.982Z,0
2022-09-04T03:10:17.919Z,0
2022-09-04T03:15:18.630Z,0
2022-09-04T03:20:17.889Z,0
2022-09-04T03:25:18.826Z,0
2022-09-04T03:30:17.985Z,0
2022-09-04T03:35:17.966Z,0
2022-09-04T03:40:17.882Z,0
2022-09-04T03:45:18.405Z,0
2022-09-04T03:50:17.954Z,0
2022-09-04T03:55:17.970Z,0
2022-09-04T04:00:17.149Z,0
2022-09-04T04:05:17.058Z,0
2022-09-04T04:10:16.950Z,0
2022-09-04T04:15:17.174Z,0
2022-09-04T04:20:17.356Z,0
2022-09-04T04:25:17.121Z,0
2022-09-04T04:30:17.061Z,0
2022-09-04T04:35:17.417Z,0
2022-09-04T04:40:17.086Z,0
2022-09-04T04:45:17.291Z,0
2022-09-04T04:50:17.926Z,0
2022-09-04T04:55:17.151Z,0
2022-09-04T05:00:17.105Z,0
2022-09-04T05:05:17.158Z,0
2022-09-04T05:10:17.093Z,0
2022-09-04T05:15:17.504Z,0
2022-09-04T05:20:17.097Z,0
2022-09-04T05:25:17.679Z,0
2022-09-04T05:30:18.212Z,0
2022-09-04T05:35:17.309Z,0
2022-09-04T05:40:18.493Z,0
2022-09-04T05:45:17.347Z,0
2022-09-04T05:50:17.287Z,0
2022-09-04T05:55:17.341Z,0
2022-09-04T06:00:17.463Z,0
2022-09-04T06:05:17.360Z,0
2022-09-04T06:10:17.146Z,0
2022-09-04T06:15:17.477Z,0
2022-09-04T06:20:17.268Z,0
2022-09-04T06:25:17.333Z,0
2022-09-04T06:30:17.698Z,0
2022-09-04T06:35:17.483Z,0
2022-09-04T06:40:17.301Z,0
2022-09-04T06:45:17.544Z,0
2022-09-04T06:50:17.281Z,0
2022-09-04T06:55:17.350Z,0
2022-09-04T07:00:17.319Z,0
2022-09-04T07:05:17.424Z,0
2022-09-04T07:10:17.588Z,0
2022-09-04T07:15:17.952Z,0
2022-09-04T07:20:17.390Z,0
2022-09-04T07:25:17.636Z,0
2022-09-04T07:30:17.426Z,0
2022-09-04T07:35:17.464Z,0
2022-09-04T07:40:19.553Z,0
2022-09-04T07:45:17.761Z,0
2022-09-04T07:50:17.449Z,0
2022-09-04T07:55:17.666Z,0
2022-09-04T08:00:17.447Z,0
2022-09-04T08:05:17.726Z,0
2022-09-04T08:10:17.315Z,0
2022-09-04T08:15:17.911Z,0
2022-09-04T08:20:17.455Z,0
2022-09-04T08:25:17.596Z,0
2022-09-04T08:30:17.568Z,0
2022-09-04T08:35:17.605Z,0
2022-09-04T08:40:17.721Z,0
2022-09-04T08:45:17.624Z,0
2022-09-04T08:50:17.711Z,0
2022-09-04T08:55:17.673Z,0
2022-09-04T09:00:17.937Z,0
2022-09-04T09:05:17.848Z,0
2022-09-04T09:10:17.755Z,0
2022-09-04T09:15:17.618Z,0
2022-09-04T09:20:19.928Z,0
2022-09-04T09:25:17.902Z,0
2022-09-04T09:30:17.741Z,0
2022-09-04T09:35:17.648Z,0
2022-09-04T09:40:17.546Z,0
2022-09-04T09:45:17.976Z,0
2022-09-04T09:50:17.626Z,0
2022-09-04T09:55:17.676Z,0
2022-09-04T10:00:17.979Z,0
2022-09-04T10:05:17.758Z,0
2022-09-04T10:10:17.684Z,4
2022-09-04T10:15:18.118Z,7
2022-09-04T10:20:17.666Z,12
2022-09-04T10:25:17.841Z,18
2022-09-04T10:30:17.780Z,25
2022-09-04T10:35:17.969Z,32
2022-09-04T10:40:17.800Z,40
2022-09-04T10:45:18.144Z,39
2022-09-04T10:50:17.975Z,39
2022-09-04T10:55:17.886Z,41
2022-09-04T11:00:17.879Z,46
2022-09-04T11:05:17.920Z,53
2022-09-04T11:10:17.941Z,62
2022-09-04T11:15:17.987Z,73
2022-09-04T11:20:18.607Z,85
2022-09-04T11:25:17.957Z,88
2022-09-04T11:30:18.102Z,89
2022-09-04T11:35:17.971Z,99
2022-09-04T11:40:17.881Z,115
2022-09-04T11:45:18.217Z,131
2022-09-04T11:50:18.049Z,139
2022-09-04T11:55:18.012Z,143
2022-09-04T12:00:17.990Z,151
2022-09-04T12:05:18.003Z,161
2022-09-04T12:10:17.825Z,165
2022-09-04T12:15:18.127Z,164
2022-09-04T12:20:18.189Z,166
2022-09-04T12:25:18.007Z,174
2022-09-04T12:30:18.029Z,197
2022-09-04T12:35:18.218Z,249
2022-09-04T12:40:18.020Z,259
2022-09-04T12:45:18.198Z,263
2022-09-04T12:50:18.050Z,200
2022-09-04T12:55:18.300Z,203
2022-09-04T13:00:18.361Z,264
2022-09-04T13:05:18.108Z,422
2022-09-04T13:10:18.143Z,502
2022-09-04T13:15:18.199Z,509
2022-09-04T13:20:18.084Z,518
2022-09-04T13:25:18.264Z,529
2022-09-04T13:30:18.557Z,541
2022-09-04T13:35:19.874Z,551
2022-09-04T13:40:18.120Z,563
2022-09-04T13:45:18.398Z,576
2022-09-04T13:50:16.412Z,586
2022-09-04T13:55:16.307Z,598
2022-09-04T14:00:16.374Z,608
2022-09-04T14:05:16.498Z,618
2022-09-04T14:10:16.666Z,628
2022-09-04T14:15:16.371Z,636
2022-09-04T14:20:20.600Z,646
2022-09-04T14:25:16.380Z,654
2022-09-04T14:30:16.547Z,663
2022-09-04T14:35:16.302Z,671
2022-09-04T14:40:16.361Z,679
2022-09-04T14:45:16.344Z,687
2022-09-04T14:50:16.322Z,694
2022-09-04T14:55:16.404Z,702
2022-09-04T15:00:16.486Z,708
2022-09-04T15:05:16.721Z,716
2022-09-04T15:10:16.371Z,723
2022-09-04T15:15:16.687Z,729
2022-09-04T15:20:17.173Z,735
2022-09-04T15:25:17.420Z,741
2022-09-04T15:30:17.004Z,747
2022-09-04T15:35:16.566Z,752
2022-09-04T15:40:16.361Z,756
2022-09-04T15:45:16.845Z,759
2022-09-04T15:50:16.461Z,763
2022-09-04T15:55:16.776Z,767
2022-09-04T16:00:16.905Z,770
2022-09-04T16:05:18.562Z,772
2022-09-04T16:10:16.562Z,774
2022-09-04T16:15:16.684Z,776
2022-09-04T16:20:16.611Z,778
2022-09-04T16:25:16.647Z,779
2022-09-04T16:30:16.914Z,780
2022-09-04T16:35:16.582Z,780
2022-09-04T16:40:16.813Z,780
2022-09-04T16:45:16.633Z,779
2022-09-04T16:50:17.695Z,779
2022-09-04T16:55:16.819Z,778
2022-09-04T17:00:16.609Z,774
2022-09-04T17:05:16.652Z,772
2022-09-04T17:10:16.546Z,769
2022-09-04T17:15:16.860Z,765
2022-09-04T17:20:16.547Z,760
2022-09-04T17:29:01.749Z,755
2022-09-04T17:29:08.419Z,755
2022-09-04T17:29:10.497Z,755
2022-09-04T17:30:25.817Z,750
2022-09-04T17:40:35.864Z,746
2022-09-04T17:40:37.252Z,746
2022-09-04T17:40:41.635Z,746
2022-09-04T17:40:51.297Z,742
2022-09-04T17:41:39.444Z,742
2022-09-04T17:45:16.855Z,736
2022-09-04T17:50:16.595Z,731
2022-09-04T17:55:16.726Z,724
2022-09-04T18:00:16.964Z,709
2022-09-04T18:05:16.666Z,679
2022-09-04T18:10:17.402Z,640
2022-09-04T18:15:33.322Z,597
2022-09-04T18:20:16.637Z,560
2022-09-04T18:25:17.772Z,536
2022-09-04T18:35:38.929Z,526
2022-09-04T18:37:06.060Z,526
2022-09-04T18:37:07.099Z,526
2022-09-04T18:37:18.792Z,529
2022-09-04T18:37:26.029Z,529
2022-09-04T18:37:41.538Z,529
2022-09-04T18:40:16.792Z,544
2022-09-04T18:50:23.164Z,564
2022-09-04T18:50:30.865Z,585
2022-09-04T18:50:36.448Z,564
2022-09-04T18:50:38.074Z,564
2022-09-04T18:55:16.785Z,599
2022-09-04T19:00:16.878Z,601
2022-09-04T19:05:16.849Z,605
2022-09-04T19:10:16.884Z,594
2022-09-04T19:15:16.958Z,583
2022-09-04T19:20:17.365Z,573
2022-09-04T19:25:17.005Z,562
2022-09-04T19:30:19.749Z,520
2022-09-04T19:35:16.906Z,418
2022-09-04T19:45:54.771Z,537
2022-09-04T19:45:59.229Z,537
2022-09-04T19:46:09.037Z,537
2022-09-04T19:46:16.780Z,511
2022-09-04T19:46:29.776Z,511
2022-09-04T19:53:19.482Z,370
2022-09-04T19:53:30.343Z,370
2022-09-04T19:53:33.360Z,370
2022-09-04T19:55:23.677Z,85
2022-09-04T20:00:31.352Z,64
2022-09-04T20:05:16.832Z,84
2022-09-04T20:10:16.901Z,248
2022-09-04T20:15:17.241Z,417
2022-09-04T20:20:17.078Z,426
2022-09-04T20:25:16.995Z,410
2022-09-04T20:30:17.014Z,390
2022-09-04T20:35:33.120Z,311
2022-09-04T20:40:17.241Z,357
2022-09-04T20:48:25.737Z,243
2022-09-04T20:52:20.494Z,243
2022-09-04T20:52:50.799Z,243
2022-09-04T20:52:54.032Z,302
2022-09-04T20:52:56.255Z,302
2022-09-04T20:52:59.020Z,302
2022-09-04T20:55:17.100Z,300
2022-09-04T21:03:08.524Z,234
2022-09-04T21:03:18.783Z,234
2022-09-04T21:03:21.098Z,234
2022-09-04T21:05:17.230Z,259
2022-09-04T21:10:17.009Z,262
2022-09-04T21:15:17.134Z,243
2022-09-04T21:20:17.047Z,200
2022-09-04T21:25:18.537Z,130
2022-09-04T21:30:17.302Z,75
2022-09-04T21:35:17.064Z,65
2022-09-04T21:40:18.838Z,75
2022-09-04T21:45:17.620Z,72
2022-09-04T21:50:17.186Z,91
2022-09-04T21:58:15.930Z,77
2022-09-04T22:02:30.473Z,77
2022-09-04T22:02:30.899Z,77
2022-09-04T22:02:38.658Z,77
2022-09-04T22:02:43.085Z,77
2022-09-04T22:02:51.288Z,77
2022-09-04T22:05:17.187Z,95
2022-09-04T22:13:39.703Z,88
2022-09-04T22:13:39.703Z,88
2022-09-04T22:13:43.377Z,88
2022-09-04T22:15:17.582Z,77
2022-09-04T22:20:17.277Z,86
2022-09-04T22:25:18.669Z,63
2022-09-04T22:30:17.365Z,40
2022-09-04T22:35:17.470Z,28
2022-09-04T22:40:17.377Z,25
2022-09-04T22:45:17.545Z,23
2022-09-04T22:50:17.166Z,24
2022-09-04T22:55:38.393Z,19
2022-09-04T23:00:17.293Z,9
2022-09-04T23:05:18.130Z,3
2022-09-04T23:13:51.399Z,0
2022-09-04T23:13:51.941Z,0
2022-09-04T23:13:59.032Z,0
2022-09-04T23:15:17.469Z,0
2022-09-04T23:25:55.463Z,0
2022-09-04T23:26:34.770Z,0
2022-09-04T23:26:44.645Z,0
2022-09-04T23:26:47.728Z,0
2022-09-04T23:26:54.102Z,0
2022-09-04T23:30:17.313Z,0
2022-09-04T23:35:17.387Z,0
2022-09-04T23:40:19.043Z,0
2022-09-04T23:45:17.491Z,0
2022-09-04T23:50:17.836Z,0
2022-09-04T23:55:17.409Z,0
